Time;durP1;ratioP1;P1;durP2;ratioP2;P2;SDS_P1;SDS_P2;PMS_P1;PMS_P2;Temp;Humidity;BMP_temperature;BMP_pressure;BME280_temperature;BME280_humidity;BME280_pressure;Samples;Min_cycle;Max_cycle;Signal;HPM_P1;HPM_P2
2021/09/18 00:01:11;;;;;;;14.95;4.18;;;;;;;;;;4430202;32;20716;-54
2021/09/18 00:03:37;;;;;;;16.02;3.03;;;;;;;;;;4422892;32;20688;-54
2021/09/18 00:06:02;;;;;;;10.43;3.10;;;;;;;;;;4424686;32;20321;-54
2021/09/18 00:08:28;;;;;;;15.05;3.75;;;;;;;;;;4432016;32;20284;-53
2021/09/18 00:10:53;;;;;;;11.25;3.08;;;;;;;;;;4417604;32;20236;-54
2021/09/18 00:13:19;;;;;;;17.27;3.85;;;;;;;;;;4423381;32;20247;-54
2021/09/18 00:15:44;;;;;;;13.40;3.12;;;;;;;;;;4431049;32;20653;-54
2021/09/18 00:18:10;;;;;;;10.60;3.22;;;;;;;;;;4432200;32;20786;-54
2021/09/18 00:20:35;;;;;;;11.30;2.92;;;;;;;;;;4432199;32;20281;-54
2021/09/18 00:23:01;;;;;;;18.65;3.62;;;;;;;;;;4425670;32;20253;-54
2021/09/18 00:25:27;;;;;;;16.23;3.55;;;;;;;;;;4416827;32;20286;-54
2021/09/18 00:27:52;;;;;;;9.98;3.75;;;;;;;;;;4422018;32;20339;-55
2021/09/18 00:30:18;;;;;;;20.45;3.30;;;;;;;;;;4432274;32;20358;-54
2021/09/18 00:32:44;;;;;;;8.63;2.95;;;;;;;;;;4431563;32;20229;-54
2021/09/18 00:35:09;;;;;;;17.85;4.03;;;;;;;;;;4429840;32;20372;-54
2021/09/18 00:37:35;;;;;;;16.83;4.62;;;;;;;;;;4419599;32;20326;-56
2021/09/18 00:40:00;;;;;;;10.23;3.90;;;;;;;;;;4419542;32;20217;-54
2021/09/18 00:42:26;;;;;;;12.48;3.53;;;;;;;;;;4431596;32;20221;-54
2021/09/18 00:44:52;;;;;;;23.65;4.97;;;;;;;;;;4432152;32;20225;-55
2021/09/18 00:47:18;;;;;;;7.18;2.83;;;;;;;;;;4431928;32;20579;-55
2021/09/18 00:49:44;;;;;;;14.55;3.22;;;;;;;;;;4431726;32;20252;-56
2021/09/18 00:52:09;;;;;;;9.27;3.10;;;;;;;;;;4425227;32;20312;-55
2021/09/18 00:54:35;;;;;;;12.50;3.37;;;;;;;;;;4414949;32;20743;-56
2021/09/18 00:57:00;;;;;;;17.02;3.80;;;;;;;;;;4430474;32;20225;-56
2021/09/18 00:59:26;;;;;;;23.90;3.60;;;;;;;;;;4420678;32;20604;-55
2021/09/18 01:01:52;;;;;;;19.73;5.00;;;;;;;;;;4423202;32;20243;-55
2021/09/18 01:04:17;;;;;;;18.48;4.32;;;;;;;;;;4419774;32;20217;-55
2021/09/18 01:06:42;;;;;;;14.87;3.92;;;;;;;;;;4430878;32;20542;-55
2021/09/18 01:09:09;;;;;;;16.60;4.65;;;;;;;;;;4430390;32;21338;-54
2021/09/18 01:11:34;;;;;;;14.60;5.68;;;;;;;;;;4422269;32;20234;-54
2021/09/18 01:14:00;;;;;;;14.60;4.20;;;;;;;;;;4414733;32;20707;-54
2021/09/18 01:16:25;;;;;;;12.70;3.35;;;;;;;;;;4431801;32;20317;-54
2021/09/18 01:18:51;;;;;;;20.37;4.28;;;;;;;;;;4423231;32;20825;-55
2021/09/18 01:21:18;;;;;;;10.30;3.67;;;;;;;;;;4425229;32;20232;-54
2021/09/18 01:23:45;;;;;;;19.95;3.97;;;;;;;;;;4427224;32;20701;-55
2021/09/18 01:26:11;;;;;;;15.05;4.05;;;;;;;;;;4423973;32;20280;-54
2021/09/18 01:28:39;;;;;;;16.05;3.90;;;;;;;;;;4425843;32;20383;-55
2021/09/18 01:31:05;;;;;;;12.65;4.20;;;;;;;;;;4423618;32;20217;-54
2021/09/18 01:33:30;;;;;;;11.25;3.87;;;;;;;;;;4419185;32;20284;-57
2021/09/18 01:35:56;;;;;;;10.30;4.22;;;;;;;;;;4416949;32;20690;-54
2021/09/18 01:38:21;;;;;;;8.07;3.20;;;;;;;;;;4420366;32;20295;-55
2021/09/18 01:40:47;;;;;;;11.63;3.28;;;;;;;;;;4434187;32;20249;-55
2021/09/18 01:43:14;;;;;;;14.80;3.53;;;;;;;;;;4435067;32;20302;-56
2021/09/18 01:45:40;;;;;;;16.37;3.45;;;;;;;;;;4434786;32;20271;-56
2021/09/18 01:48:08;;;;;;;14.85;3.72;;;;;;;;;;4433477;32;20192;-55
2021/09/18 01:50:39;;;;;;;16.95;3.70;;;;;;;;;;4434023;32;20454;-54
2021/09/18 01:53:06;;;;;;;10.23;3.45;;;;;;;;;;4434373;32;20216;-54
2021/09/18 01:55:32;;;;;;;14.02;3.58;;;;;;;;;;4434810;32;20356;-54
2021/09/18 01:57:59;;;;;;;11.12;2.87;;;;;;;;;;4431515;32;20209;-53
2021/09/18 02:00:26;;;;;;;22.30;4.25;;;;;;;;;;4434016;32;20251;-53
2021/09/18 02:02:52;;;;;;;14.70;3.45;;;;;;;;;;4419514;32;20557;-54
2021/09/18 02:05:20;;;;;;;9.82;3.47;;;;;;;;;;4434696;32;20315;-53
2021/09/18 02:07:46;;;;;;;15.68;3.28;;;;;;;;;;4423928;32;20387;-55
2021/09/18 02:10:15;;;;;;;10.18;4.50;;;;;;;;;;4430058;32;20369;-54
2021/09/18 02:12:40;;;;;;;15.60;4.28;;;;;;;;;;4434077;32;20268;-54
2021/09/18 02:15:07;;;;;;;20.90;3.75;;;;;;;;;;4434749;32;20263;-54
2021/09/18 02:17:33;;;;;;;13.75;4.68;;;;;;;;;;4432266;32;20634;-55
2021/09/18 02:19:59;;;;;;;17.10;4.03;;;;;;;;;;4432447;32;20272;-54
2021/09/18 02:22:24;;;;;;;16.65;3.67;;;;;;;;;;4434120;32;20352;-53
2021/09/18 02:24:50;;;;;;;17.17;3.78;;;;;;;;;;4434451;32;20349;-55
2021/09/18 02:27:15;;;;;;;11.23;3.25;;;;;;;;;;4422879;32;20403;-53
2021/09/18 02:29:41;;;;;;;17.23;3.50;;;;;;;;;;4420365;32;20233;-54
2021/09/18 02:32:06;;;;;;;10.65;3.50;;;;;;;;;;4433481;32;20285;-53
2021/09/18 02:34:32;;;;;;;10.93;3.35;;;;;;;;;;4432975;32;20640;-54
2021/09/18 02:36:57;;;;;;;13.90;4.22;;;;;;;;;;4428154;32;20387;-54
2021/09/18 02:39:23;;;;;;;11.30;3.37;;;;;;;;;;4428939;32;20232;-56
2021/09/18 02:41:48;;;;;;;16.70;4.47;;;;;;;;;;4421064;32;20210;-56
2021/09/18 02:44:14;;;;;;;9.73;3.75;;;;;;;;;;4419214;32;20217;-56
2021/09/18 02:46:39;;;;;;;11.23;4.65;;;;;;;;;;4434085;32;20302;-56
2021/09/18 02:49:05;;;;;;;18.95;4.22;;;;;;;;;;4433890;32;20653;-56
2021/09/18 02:51:30;;;;;;;17.40;4.28;;;;;;;;;;4433416;32;20256;-56
2021/09/18 02:53:56;;;;;;;8.18;3.20;;;;;;;;;;4433689;32;20276;-56
2021/09/18 02:56:21;;;;;;;11.00;3.15;;;;;;;;;;4421172;32;20236;-56
2021/09/18 02:58:46;;;;;;;18.67;4.35;;;;;;;;;;4424497;32;20627;-55
2021/09/18 03:01:12;;;;;;;16.85;3.65;;;;;;;;;;4417659;32;20258;-54
2021/09/18 03:03:37;;;;;;;10.32;3.62;;;;;;;;;;4417820;32;20567;-53
2021/09/18 03:06:03;;;;;;;28.23;5.00;;;;;;;;;;4418459;32;20220;-54
2021/09/18 03:08:28;;;;;;;12.13;3.92;;;;;;;;;;4426635;32;20326;-56
2021/09/18 03:10:54;;;;;;;15.95;4.65;;;;;;;;;;4418564;32;20217;-54
2021/09/18 03:13:19;;;;;;;17.12;5.05;;;;;;;;;;4411569;32;20357;-54
2021/09/18 03:15:45;;;;;;;15.23;4.12;;;;;;;;;;4430569;32;20603;-53
2021/09/18 03:18:10;;;;;;;10.55;4.25;;;;;;;;;;4433613;32;20271;-53
2021/09/18 03:20:36;;;;;;;13.15;3.90;;;;;;;;;;4433348;32;20237;-53
2021/09/18 03:23:01;;;;;;;14.85;4.45;;;;;;;;;;4432604;32;20317;-53
2021/09/18 03:25:27;;;;;;;15.80;6.60;;;;;;;;;;4433371;32;20216;-54
2021/09/18 03:27:52;;;;;;;19.95;3.92;;;;;;;;;;4433413;32;20693;-54
2021/09/18 03:30:18;;;;;;;17.45;4.62;;;;;;;;;;4433288;32;20323;-53
2021/09/18 03:32:43;;;;;;;12.30;4.18;;;;;;;;;;4429247;32;20193;-53
2021/09/18 03:35:09;;;;;;;15.63;4.97;;;;;;;;;;4417690;32;20378;-53
2021/09/18 03:37:35;;;;;;;17.27;4.82;;;;;;;;;;4420924;32;20655;-55
2021/09/18 03:40:04;;;;;;;20.88;4.30;;;;;;;;;;4419982;32;20274;-54
2021/09/18 03:42:30;;;;;;;16.98;4.78;;;;;;;;;;4425325;32;20297;-53
2021/09/18 03:44:56;;;;;;;18.42;3.97;;;;;;;;;;4433524;32;20228;-54
2021/09/18 03:47:21;;;;;;;20.62;3.95;;;;;;;;;;4431635;32;20256;-54
2021/09/18 03:49:46;;;;;;;11.77;4.22;;;;;;;;;;4429150;32;20568;-55
2021/09/18 03:52:12;;;;;;;14.05;3.03;;;;;;;;;;4428491;32;20255;-54
2021/09/18 03:54:37;;;;;;;23.62;4.43;;;;;;;;;;4433301;32;20247;-54
2021/09/18 03:57:03;;;;;;;11.48;3.50;;;;;;;;;;4417671;32;20664;-54
2021/09/18 03:59:28;;;;;;;12.25;2.97;;;;;;;;;;4417499;32;20307;-53
2021/09/18 04:01:54;;;;;;;14.43;3.80;;;;;;;;;;4417251;32;20649;-53
2021/09/18 04:04:19;;;;;;;13.88;3.60;;;;;;;;;;4425221;32;20295;-53
2021/09/18 04:06:47;;;;;;;28.33;3.37;;;;;;;;;;4418443;32;20592;-53
2021/09/18 04:09:12;;;;;;;8.18;2.90;;;;;;;;;;4414576;32;20256;-53
2021/09/18 04:11:37;;;;;;;9.18;3.85;;;;;;;;;;4417411;32;20280;-53
2021/09/18 04:14:03;;;;;;;8.63;3.08;;;;;;;;;;4426644;32;20277;-54
2021/09/18 04:16:28;;;;;;;14.60;3.87;;;;;;;;;;4432658;32;20255;-53
2021/09/18 04:18:54;;;;;;;15.95;3.78;;;;;;;;;;4420646;32;20273;-54
2021/09/18 04:21:19;;;;;;;7.15;3.03;;;;;;;;;;4417877;32;20321;-53
2021/09/18 04:23:45;;;;;;;7.35;3.03;;;;;;;;;;4427670;32;20301;-54
2021/09/18 04:26:11;;;;;;;12.50;4.35;;;;;;;;;;4417395;32;20249;-54
2021/09/18 04:28:37;;;;;;;17.55;5.95;;;;;;;;;;4432590;32;20356;-55
2021/09/18 04:31:02;;;;;;;13.65;5.07;;;;;;;;;;4433082;32;20216;-54
2021/09/18 04:33:28;;;;;;;22.00;5.70;;;;;;;;;;4420182;32;20204;-54
2021/09/18 04:35:54;;;;;;;15.80;7.18;;;;;;;;;;4417105;32;20248;-54
2021/09/18 04:38:19;;;;;;;18.75;6.25;;;;;;;;;;4418872;32;20438;-54
2021/09/18 04:40:44;;;;;;;20.20;4.72;;;;;;;;;;4431466;32;20285;-54
2021/09/18 04:43:10;;;;;;;23.20;4.72;;;;;;;;;;4432168;32;20352;-54
2021/09/18 04:45:35;;;;;;;13.77;4.68;;;;;;;;;;4432029;32;20701;-55
2021/09/18 04:48:01;;;;;;;16.30;4.40;;;;;;;;;;4431702;32;20568;-55
2021/09/18 04:50:26;;;;;;;14.00;3.17;;;;;;;;;;4431862;32;20599;-55
2021/09/18 04:52:52;;;;;;;12.27;3.28;;;;;;;;;;4427756;32;20625;-55
2021/09/18 04:55:18;;;;;;;19.30;4.50;;;;;;;;;;4417415;32;20324;-55
2021/09/18 04:57:43;;;;;;;10.23;3.65;;;;;;;;;;4420676;32;20280;-55
2021/09/18 05:00:09;;;;;;;12.75;3.83;;;;;;;;;;4432261;32;20292;-54
2021/09/18 05:02:35;;;;;;;20.77;3.70;;;;;;;;;;4431359;32;20315;-55
2021/09/18 05:05:00;;;;;;;18.23;5.35;;;;;;;;;;4429015;32;20221;-54
2021/09/18 05:07:26;;;;;;;21.65;5.12;;;;;;;;;;4424455;32;20347;-55
2021/09/18 05:09:51;;;;;;;18.35;4.50;;;;;;;;;;4423987;32;20221;-55
2021/09/18 05:12:17;;;;;;;21.80;4.32;;;;;;;;;;4422471;32;20220;-55
2021/09/18 05:14:42;;;;;;;13.30;3.87;;;;;;;;;;4435453;32;20243;-55
2021/09/18 05:17:07;;;;;;;13.65;5.55;;;;;;;;;;4430918;32;20260;-55
2021/09/18 05:19:33;;;;;;;27.77;5.75;;;;;;;;;;4434838;32;20248;-54
2021/09/18 05:21:59;;;;;;;14.25;4.12;;;;;;;;;;4429055;32;20292;-55
2021/09/18 05:24:25;;;;;;;9.98;4.30;;;;;;;;;;4434476;32;20285;-54
2021/09/18 05:26:51;;;;;;;19.98;5.20;;;;;;;;;;4435205;32;20361;-54
2021/09/18 05:29:17;;;;;;;13.88;4.12;;;;;;;;;;4420444;32;20241;-54
2021/09/18 05:31:42;;;;;;;28.60;5.55;;;;;;;;;;4420181;32;20281;-54
2021/09/18 05:34:09;;;;;;;13.25;3.67;;;;;;;;;;4420906;32;20747;-54
2021/09/18 05:36:35;;;;;;;16.10;5.22;;;;;;;;;;4424166;32;20297;-54
2021/09/18 05:39:00;;;;;;;25.42;5.45;;;;;;;;;;4428995;32;20308;-54
2021/09/18 05:41:25;;;;;;;21.02;5.90;;;;;;;;;;4435207;32;20257;-55
2021/09/18 05:43:51;;;;;;;21.75;6.15;;;;;;;;;;4435163;32;20650;-55
2021/09/18 05:46:16;;;;;;;18.50;6.80;;;;;;;;;;4416232;32;20279;-54
2021/09/18 05:48:42;;;;;;;14.60;6.22;;;;;;;;;;4428905;32;20279;-54
2021/09/18 05:51:07;;;;;;;25.35;6.55;;;;;;;;;;4434447;32;20748;-54
2021/09/18 05:53:33;;;;;;;12.73;5.45;;;;;;;;;;4434883;32;20712;-54
2021/09/18 05:55:58;;;;;;;19.37;7.72;;;;;;;;;;4434558;32;20272;-54
2021/09/18 05:58:24;;;;;;;17.48;6.62;;;;;;;;;;4419831;32;20285;-54
2021/09/18 06:00:49;;;;;;;17.23;6.78;;;;;;;;;;4434046;32;20311;-54
2021/09/18 06:03:15;;;;;;;21.60;7.05;;;;;;;;;;4427420;32;20291;-54
2021/09/18 06:05:40;;;;;;;23.10;5.70;;;;;;;;;;4419701;32;20256;-54
2021/09/18 06:08:06;;;;;;;16.48;5.22;;;;;;;;;;4425891;32;20292;-56
2021/09/18 06:10:31;;;;;;;8.00;4.65;;;;;;;;;;4422021;32;20247;-54
2021/09/18 06:12:57;;;;;;;14.35;5.37;;;;;;;;;;4419075;32;20272;-54
2021/09/18 06:15:22;;;;;;;13.23;4.87;;;;;;;;;;4419756;32;20237;-54
2021/09/18 06:17:48;;;;;;;14.30;4.53;;;;;;;;;;4423878;32;20692;-54
2021/09/18 06:20:13;;;;;;;28.77;5.70;;;;;;;;;;4434553;32;20252;-54
2021/09/18 06:22:39;;;;;;;19.55;6.47;;;;;;;;;;4433769;32;20631;-54
2021/09/18 06:25:05;;;;;;;19.65;7.15;;;;;;;;;;4419649;32;20253;-54
2021/09/18 06:27:31;;;;;;;18.70;6.87;;;;;;;;;;4424451;32;20721;-53
2021/09/18 06:29:57;;;;;;;11.65;5.55;;;;;;;;;;4430334;32;20249;-53
2021/09/18 06:32:22;;;;;;;18.90;6.07;;;;;;;;;;4428189;32;20671;-55
2021/09/18 06:34:48;;;;;;;14.40;4.57;;;;;;;;;;4421571;32;20213;-53
2021/09/18 06:37:13;;;;;;;13.90;4.82;;;;;;;;;;4434877;32;20633;-54
2021/09/18 06:39:39;;;;;;;16.67;5.50;;;;;;;;;;4423324;32;20341;-53
2021/09/18 06:42:05;;;;;;;21.55;7.15;;;;;;;;;;4431144;32;20208;-54
2021/09/18 06:44:30;;;;;;;23.02;6.60;;;;;;;;;;4425801;32;20675;-54
2021/09/18 06:46:56;;;;;;;15.40;5.40;;;;;;;;;;4420006;32;20214;-53
2021/09/18 06:49:21;;;;;;;26.98;7.32;;;;;;;;;;4434434;32;20229;-53
2021/09/18 06:51:47;;;;;;;21.87;7.43;;;;;;;;;;4437345;32;20205;-55
2021/09/18 06:54:12;;;;;;;28.02;6.32;;;;;;;;;;4424873;32;20563;-55
2021/09/18 06:56:38;;;;;;;13.45;5.55;;;;;;;;;;4419319;32;20348;-54
2021/09/18 06:59:03;;;;;;;17.52;5.40;;;;;;;;;;4419172;32;20586;-55
2021/09/18 07:01:29;;;;;;;9.40;5.07;;;;;;;;;;4422106;32;20196;-55
2021/09/18 07:03:54;;;;;;;21.17;5.32;;;;;;;;;;4419492;32;20633;-54
2021/09/18 07:06:20;;;;;;;20.52;6.45;;;;;;;;;;4440686;32;20328;-55
2021/09/18 07:08:45;;;;;;;22.37;5.65;;;;;;;;;;4429486;32;20326;-56
2021/09/18 07:11:11;;;;;;;13.35;5.43;;;;;;;;;;4433556;32;20503;-54
2021/09/18 07:13:36;;;;;;;22.45;5.05;;;;;;;;;;4424182;32;20347;-54
2021/09/18 07:16:02;;;;;;;17.60;4.10;;;;;;;;;;4418970;32;20221;-53
2021/09/18 07:18:28;;;;;;;14.73;4.60;;;;;;;;;;4418777;32;20310;-54
2021/09/18 07:20:54;;;;;;;19.55;5.03;;;;;;;;;;4405073;32;20257;-54
2021/09/18 07:23:20;;;;;;;15.48;4.60;;;;;;;;;;4417863;32;20637;-53
2021/09/18 07:25:46;;;;;;;9.73;3.55;;;;;;;;;;4418452;32;20256;-54
2021/09/18 07:28:11;;;;;;;15.55;4.87;;;;;;;;;;4425847;32;20719;-53
2021/09/18 07:30:37;;;;;;;12.77;4.80;;;;;;;;;;4426245;32;20370;-52
2021/09/18 07:33:03;;;;;;;11.07;3.03;;;;;;;;;;4430230;32;20221;-52
2021/09/18 07:35:28;;;;;;;17.60;4.18;;;;;;;;;;4428565;32;20776;-53
2021/09/18 07:37:54;;;;;;;16.65;4.30;;;;;;;;;;4433426;32;20295;-52
2021/09/18 07:40:19;;;;;;;14.13;3.20;;;;;;;;;;4419411;32;20688;-53
2021/09/18 07:42:45;;;;;;;11.52;3.55;;;;;;;;;;4421614;32;20311;-55
2021/09/18 07:45:11;;;;;;;13.20;4.12;;;;;;;;;;4432832;32;20245;-53
2021/09/18 07:47:37;;;;;;;18.50;4.40;;;;;;;;;;4433162;32;20288;-54
2021/09/18 07:50:04;;;;;;;16.42;4.68;;;;;;;;;;4433052;32;20620;-53
2021/09/18 07:52:29;;;;;;;10.45;4.68;;;;;;;;;;4433150;32;20263;-54
2021/09/18 07:54:55;;;;;;;21.33;4.93;;;;;;;;;;4422403;32;20220;-53
2021/09/18 07:57:21;;;;;;;8.55;3.65;;;;;;;;;;4419369;32;20330;-53
2021/09/18 07:59:47;;;;;;;14.63;4.10;;;;;;;;;;4432850;32;20364;-53
2021/09/18 08:02:13;;;;;;;15.68;4.82;;;;;;;;;;4421965;32;20705;-53
2021/09/18 08:04:38;;;;;;;17.45;6.75;;;;;;;;;;4424393;32;20271;-53
2021/09/18 08:07:04;;;;;;;21.00;6.60;;;;;;;;;;4433592;32;20401;-53
2021/09/18 08:09:29;;;;;;;14.60;5.28;;;;;;;;;;4426485;32;20263;-54
2021/09/18 08:11:55;;;;;;;18.40;5.37;;;;;;;;;;4418103;32;20686;-53
2021/09/18 08:14:21;;;;;;;20.17;5.75;;;;;;;;;;4431804;32;20233;-53
2021/09/18 08:16:46;;;;;;;14.73;6.40;;;;;;;;;;4417562;32;20282;-53
2021/09/18 08:19:12;;;;;;;10.90;4.70;;;;;;;;;;4431848;32;20248;-53
2021/09/18 08:21:37;;;;;;;27.70;5.47;;;;;;;;;;4432222;32;20233;-53
2021/09/18 08:24:03;;;;;;;12.77;5.55;;;;;;;;;;4427736;32;20299;-53
2021/09/18 08:26:30;;;;;;;16.98;5.55;;;;;;;;;;4430050;32;20236;-53
2021/09/18 08:28:59;;;;;;;19.90;6.47;;;;;;;;;;4432852;32;20225;-53
2021/09/18 08:31:26;;;;;;;16.10;5.55;;;;;;;;;;4420199;32;20209;-53
2021/09/18 08:33:52;;;;;;;16.87;5.85;;;;;;;;;;4427658;32;20217;-53
2021/09/18 08:36:17;;;;;;;20.70;6.20;;;;;;;;;;4425289;32;20212;-53
2021/09/18 08:38:43;;;;;;;20.52;7.03;;;;;;;;;;4422516;32;20720;-55
2021/09/18 08:41:09;;;;;;;19.73;5.97;;;;;;;;;;4426006;32;20646;-53
2021/09/18 08:43:35;;;;;;;23.60;7.22;;;;;;;;;;4412679;32;20394;-54
2021/09/18 08:46:00;;;;;;;17.33;7.70;;;;;;;;;;4426834;32;20306;-54
2021/09/18 08:48:26;;;;;;;17.48;8.65;;;;;;;;;;4430127;32;20284;-53
2021/09/18 08:50:53;;;;;;;18.80;6.30;;;;;;;;;;4422476;32;20615;-54
2021/09/18 08:53:20;;;;;;;17.35;5.95;;;;;;;;;;4430910;32;20515;-54
2021/09/18 08:55:54;;;;;;;30.48;9.25;;;;;;;;;;4430594;32;20687;-54
2021/09/18 08:58:19;;;;;;;30.73;12.18;;;;;;;;;;4432274;32;20213;-54
2021/09/18 09:00:47;;;;;;;21.83;5.80;;;;;;;;;;4412739;32;20243;-54
2021/09/18 09:03:13;;;;;;;18.73;6.32;;;;;;;;;;4427901;32;20592;-54
2021/09/18 09:05:42;;;;;;;18.42;5.68;;;;;;;;;;4415963;32;20437;-55
2021/09/18 09:08:09;;;;;;;19.83;4.68;;;;;;;;;;4428821;32;20209;-54
2021/09/18 09:10:35;;;;;;;18.73;5.70;;;;;;;;;;4424560;32;20257;-54
2021/09/18 09:13:18;;;;;;;21.67;4.82;;;;;;;;;;4432602;32;20745;-55
2021/09/18 09:15:46;;;;;;;8.75;3.00;;;;;;;;;;4409857;32;20395;-54
2021/09/18 09:18:15;;;;;;;10.30;4.05;;;;;;;;;;4430641;32;20273;-54
2021/09/18 09:20:40;;;;;;;13.77;4.35;;;;;;;;;;4430067;32;20339;-55
2021/09/18 09:23:33;;;;;;;18.17;4.70;;;;;;;;;;4432295;32;20720;-56
2021/09/18 09:25:59;;;;;;;15.68;4.55;;;;;;;;;;4421185;32;20347;-56
2021/09/18 09:28:26;;;;;;;28.08;5.93;;;;;;;;;;4432064;32;20247;-55
2021/09/18 09:30:54;;;;;;;13.82;4.32;;;;;;;;;;4427490;32;20268;-54
2021/09/18 09:33:20;;;;;;;17.12;5.05;;;;;;;;;;4424672;32;20232;-54
2021/09/18 09:35:45;;;;;;;20.37;5.53;;;;;;;;;;4430057;32;20637;-54
2021/09/18 09:38:11;;;;;;;16.50;4.47;;;;;;;;;;4429109;32;20314;-54
2021/09/18 09:40:39;;;;;;;12.70;5.12;;;;;;;;;;4424862;32;20275;-54
2021/09/18 09:43:07;;;;;;;15.05;5.55;;;;;;;;;;4430953;32;20252;-54
2021/09/18 09:45:33;;;;;;;19.90;4.82;;;;;;;;;;4428707;32;20821;-54
2021/09/18 09:48:14;;;;;;;15.85;6.10;;;;;;;;;;4429971;32;20205;-54
2021/09/18 09:50:42;;;;;;;17.95;5.90;;;;;;;;;;4417083;32;20798;-55
2021/09/18 09:53:24;;;;;;;20.08;6.75;;;;;;;;;;4429308;32;20301;-53
2021/09/18 09:55:50;;;;;;;19.33;4.87;;;;;;;;;;4424448;32;20240;-54
2021/09/18 09:58:15;;;;;;;22.80;6.12;;;;;;;;;;4432042;32;20593;-56
2021/09/18 10:00:49;;;;;;;16.77;4.47;;;;;;;;;;4433628;32;20232;-55
2021/09/18 10:03:15;;;;;;;12.65;4.37;;;;;;;;;;4432466;32;20258;-54
2021/09/18 10:05:41;;;;;;;16.33;6.90;;;;;;;;;;4433224;32;20225;-54
2021/09/18 10:08:06;;;;;;;25.48;5.18;;;;;;;;;;4433762;32;20299;-54
2021/09/18 10:10:33;;;;;;;9.85;5.18;;;;;;;;;;4427669;32;20348;-54
2021/09/18 10:12:59;;;;;;;22.02;7.18;;;;;;;;;;4418905;32;20292;-54
2021/09/18 10:15:27;;;;;;;20.02;6.10;;;;;;;;;;4423318;32;20296;-53
2021/09/18 10:17:55;;;;;;;17.12;6.55;;;;;;;;;;4418496;32;20322;-54
2021/09/18 10:25:37;;;;;;;12.23;5.60;;;;;;;;;;4433092;32;20264;-54
2021/09/18 10:28:37;;;;;;;12.95;4.93;;;;;;;;;;4429142;32;20606;-55
2021/09/18 10:31:14;;;;;;;19.35;6.18;;;;;;;;;;4414300;32;20249;-55
2021/09/18 10:33:52;;;;;;;8.57;5.00;;;;;;;;;;4418578;32;20344;-55
2021/09/18 10:36:29;;;;;;;8.57;3.42;;;;;;;;;;4425956;32;20576;-55
2021/09/18 10:39:10;;;;;;;12.77;3.78;;;;;;;;;;4426296;32;20392;-54
2021/09/18 10:41:50;;;;;;;15.93;4.97;;;;;;;;;;4431061;32;20201;-55
2021/09/18 10:44:17;;;;;;;19.50;4.80;;;;;;;;;;4426664;32;20285;-55
2021/09/18 10:46:49;;;;;;;11.60;5.28;;;;;;;;;;4423798;32;20236;-55
2021/09/18 10:49:34;;;;;;;15.38;4.65;;;;;;;;;;4424888;32;20256;-56
2021/09/18 10:52:22;;;;;;;6.45;3.95;;;;;;;;;;4430361;32;20233;-56
2021/09/18 10:54:59;;;;;;;14.90;4.40;;;;;;;;;;4416791;32;20325;-55
2021/09/18 10:57:25;;;;;;;10.77;3.87;;;;;;;;;;4429896;32;20632;-56
2021/09/18 10:59:51;;;;;;;10.23;3.45;;;;;;;;;;4412087;32;20383;-55
2021/09/18 11:02:35;;;;;;;14.05;4.60;;;;;;;;;;4427551;32;20285;-56
2021/09/18 11:05:10;;;;;;;9.13;4.07;;;;;;;;;;4422917;32;20373;-55
2021/09/18 11:07:47;;;;;;;6.45;2.87;;;;;;;;;;4430004;32;20290;-56
2021/09/18 11:10:34;;;;;;;8.07;3.05;;;;;;;;;;4418639;32;20233;-55
2021/09/18 11:13:08;;;;;;;5.93;2.67;;;;;;;;;;4410038;32;20397;-55
2021/09/18 11:15:38;;;;;;;8.65;2.95;;;;;;;;;;4428128;32;20221;-55
2021/09/18 11:18:40;;;;;;;6.75;2.92;;;;;;;;;;4427495;32;20311;-56
2021/09/18 11:21:12;;;;;;;6.43;3.22;;;;;;;;;;4420792;32;20331;-54
2021/09/18 11:23:39;;;;;;;10.40;2.10;;;;;;;;;;4420591;32;20323;-55
2021/09/18 11:26:26;;;;;;;8.60;2.35;;;;;;;;;;4422921;32;20645;-56
2021/09/18 11:28:52;;;;;;;3.78;2.22;;;;;;;;;;4432158;32;20307;-56
2021/09/18 11:31:18;;;;;;;5.97;2.50;;;;;;;;;;4432066;32;20208;-56
2021/09/18 11:33:48;;;;;;;12.37;2.53;;;;;;;;;;4406518;32;20326;-56
2021/09/18 11:36:14;;;;;;;8.82;2.87;;;;;;;;;;4423872;32;20264;-55
2021/09/18 11:38:39;;;;;;;4.22;2.22;;;;;;;;;;4427458;32;20798;-55
2021/09/18 11:41:15;;;;;;;4.32;1.33;;;;;;;;;;4429484;32;20255;-54
2021/09/18 11:43:42;;;;;;;1.83;1.30;;;;;;;;;;4432077;32;20295;-54
2021/09/18 11:46:10;;;;;;;4.80;2.15;;;;;;;;;;4431974;32;20377;-54
2021/09/18 11:48:35;;;;;;;4.45;1.92;;;;;;;;;;4431896;32;20602;-54
2021/09/18 11:51:05;;;;;;;2.70;1.80;;;;;;;;;;4432049;32;20220;-54
2021/09/18 11:53:30;;;;;;;3.75;1.95;;;;;;;;;;4432737;32;20811;-54
2021/09/18 11:55:57;;;;;;;2.35;1.60;;;;;;;;;;4432567;32;20282;-54
2021/09/18 11:58:28;;;;;;;2.58;1.62;;;;;;;;;;4432495;32;20208;-54
2021/09/18 12:00:57;;;;;;;3.30;1.30;;;;;;;;;;4426015;32;20288;-54
2021/09/18 12:03:24;;;;;;;5.00;1.48;;;;;;;;;;4416775;32;20293;-53
2021/09/18 12:06:10;;;;;;;2.53;1.23;;;;;;;;;;4420861;32;20316;-54
2021/09/18 12:08:37;;;;;;;4.53;1.67;;;;;;;;;;4431731;32;20452;-54
2021/09/18 12:11:10;;;;;;;5.10;1.77;;;;;;;;;;4416497;32;20617;-54
2021/09/18 12:13:37;;;;;;;3.62;1.50;;;;;;;;;;4426911;32;20205;-54
2021/09/18 12:16:04;;;;;;;7.87;2.05;;;;;;;;;;4430599;32;20248;-55
2021/09/18 12:18:32;;;;;;;8.15;2.00;;;;;;;;;;4428142;32;20264;-54
2021/09/18 12:21:02;;;;;;;4.05;1.65;;;;;;;;;;4431256;32;20224;-54
2021/09/18 12:23:29;;;;;;;3.17;1.50;;;;;;;;;;4424784;32;20194;-55
2021/09/18 12:26:06;;;;;;;2.70;1.58;;;;;;;;;;4421581;32;20255;-54
2021/09/18 12:28:32;;;;;;;2.42;1.80;;;;;;;;;;4432372;32;20265;-54
2021/09/18 12:30:59;;;;;;;4.18;2.25;;;;;;;;;;4430666;32;20271;-54
2021/09/18 12:33:33;;;;;;;5.82;2.25;;;;;;;;;;4421546;32;20255;-54
2021/09/18 12:36:08;;;;;;;12.02;2.60;;;;;;;;;;4416955;32;20284;-55
2021/09/18 12:38:36;;;;;;;3.45;1.48;;;;;;;;;;4420191;32;20216;-54
2021/09/18 12:41:05;;;;;;;6.62;1.80;;;;;;;;;;4423718;32;20263;-54
2021/09/18 12:43:31;;;;;;;5.47;1.67;;;;;;;;;;4421181;32;20360;-54
2021/09/18 12:46:04;;;;;;;4.35;2.17;;;;;;;;;;4424085;32;20693;-54
2021/09/18 12:48:29;;;;;;;4.18;2.20;;;;;;;;;;4421982;32;20212;-55
2021/09/18 12:51:06;;;;;;;3.28;1.83;;;;;;;;;;4430599;32;20244;-54
2021/09/18 12:53:35;;;;;;;3.08;1.65;;;;;;;;;;4425824;32;20217;-54
2021/09/18 12:56:12;;;;;;;7.30;2.42;;;;;;;;;;4429768;32;20717;-55
2021/09/18 12:58:39;;;;;;;2.78;1.60;;;;;;;;;;4424639;32;20336;-54
2021/09/18 13:01:07;;;;;;;5.22;1.83;;;;;;;;;;4429439;32;20258;-54
2021/09/18 13:03:33;;;;;;;3.78;1.70;;;;;;;;;;4418249;32;20285;-55
2021/09/18 13:06:05;;;;;;;5.70;1.83;;;;;;;;;;4422377;32;20577;-54
2021/09/18 13:08:51;;;;;;;5.25;1.95;;;;;;;;;;4428995;32;20295;-54
2021/09/18 13:11:19;;;;;;;2.62;1.83;;;;;;;;;;4417405;32;20665;-54
2021/09/18 13:13:46;;;;;;;2.92;1.20;;;;;;;;;;4432574;32;20608;-55
2021/09/18 13:16:13;;;;;;;4.47;1.83;;;;;;;;;;4431010;32;20340;-54
2021/09/18 13:18:39;;;;;;;4.12;1.02;;;;;;;;;;4431692;32;20235;-56
2021/09/18 13:21:05;;;;;;;1.77;1.20;;;;;;;;;;4426765;32;20221;-55
2021/09/18 13:23:32;;;;;;;2.45;1.52;;;;;;;;;;4431436;32;20332;-54
2021/09/18 13:25:59;;;;;;;2.83;1.55;;;;;;;;;;4429664;32;20268;-55
2021/09/18 13:28:26;;;;;;;2.40;1.35;;;;;;;;;;4431501;32;20253;-55
2021/09/18 13:30:51;;;;;;;7.62;2.03;;;;;;;;;;4423303;32;20351;-55
2021/09/18 13:33:17;;;;;;;2.08;1.10;;;;;;;;;;4424033;32;20731;-55
2021/09/18 13:35:42;;;;;;;2.03;1.17;;;;;;;;;;4422465;32;20295;-55
2021/09/18 13:38:08;;;;;;;3.42;1.23;;;;;;;;;;4429517;32;20335;-54
2021/09/18 13:40:34;;;;;;;3.12;1.58;;;;;;;;;;4423279;32;20236;-54
2021/09/18 13:43:00;;;;;;;2.78;1.67;;;;;;;;;;4430332;32;20250;-54
2021/09/18 13:45:26;;;;;;;2.28;1.77;;;;;;;;;;4420505;32;20221;-54
2021/09/18 13:47:53;;;;;;;3.50;1.77;;;;;;;;;;4433284;32;20360;-56
2021/09/18 13:50:19;;;;;;;7.37;2.03;;;;;;;;;;4433274;32;20365;-55
2021/09/18 13:52:44;;;;;;;2.15;1.55;;;;;;;;;;4417205;32;20750;-55
2021/09/18 13:55:10;;;;;;;4.35;1.35;;;;;;;;;;4404508;32;20296;-54
2021/09/18 13:57:35;;;;;;;2.45;1.37;;;;;;;;;;4418896;32;20386;-56
2021/09/18 14:00:01;;;;;;;2.25;1.12;;;;;;;;;;4431817;32;20229;-54
2021/09/18 14:02:26;;;;;;;2.42;1.12;;;;;;;;;;4432151;32;20700;-54
2021/09/18 14:04:52;;;;;;;0.90;0.80;;;;;;;;;;4432267;32;20221;-55
2021/09/18 14:07:17;;;;;;;2.00;1.00;;;;;;;;;;4422458;32;20189;-54
2021/09/18 14:09:43;;;;;;;3.87;1.20;;;;;;;;;;4427456;32;20244;-54
2021/09/18 14:12:08;;;;;;;5.85;0.98;;;;;;;;;;4431670;32;20213;-54
2021/09/18 14:14:34;;;;;;;1.70;0.77;;;;;;;;;;4420553;32;20652;-55
2021/09/18 14:16:59;;;;;;;2.62;0.75;;;;;;;;;;4433660;32;20266;-55
2021/09/18 14:19:25;;;;;;;4.43;0.62;;;;;;;;;;4418891;32;20273;-55
2021/09/18 14:21:50;;;;;;;0.45;0.45;;;;;;;;;;4429288;32;20288;-54
2021/09/18 14:24:16;;;;;;;3.33;0.95;;;;;;;;;;4434422;32;20264;-54
2021/09/18 14:26:41;;;;;;;4.82;1.80;;;;;;;;;;4432565;32;20213;-54
2021/09/18 14:29:09;;;;;;;1.70;1.33;;;;;;;;;;4420222;32;20368;-54
2021/09/18 14:31:36;;;;;;;1.37;1.00;;;;;;;;;;4424124;32;20213;-54
2021/09/18 14:34:02;;;;;;;2.10;1.10;;;;;;;;;;4432519;32;20298;-54
2021/09/18 14:36:27;;;;;;;3.87;1.02;;;;;;;;;;4428235;32;20213;-54
2021/09/18 14:38:53;;;;;;;1.70;0.80;;;;;;;;;;4427958;32;20375;-54